sensor_id;sensor_type;location;lat;lon;timestamp;P1;durP1;ratioP1;P2;durP2;ratioP2
59273;SDS011;45044;41.572;24.730;2023-04-30T00:00:11;8.82;;;5.88;;
59273;SDS011;45044;41.572;24.730;2023-04-30T00:02:38;12.88;;;7.43;;
59273;SDS011;45044;41.572;24.730;2023-04-30T00:05:05;8.00;;;6.10;;
59273;SDS011;45044;41.572;24.730;2023-04-30T00:07:32;9.85;;;6.32;;
59273;SDS011;45044;41.572;24.730;2023-04-30T00:09:59;9.50;;;6.15;;
59273;SDS011;45044;41.572;24.730;2023-04-30T00:12:26;9.68;;;6.78;;
59273;SDS011;45044;41.572;24.730;2023-04-30T00:14:53;8.55;;;6.15;;
59273;SDS011;45044;41.572;24.730;2023-04-30T00:17:21;9.68;;;7.22;;
59273;SDS011;45044;41.572;24.730;2023-04-30T00:19:49;9.02;;;6.22;;
59273;SDS011;45044;41.572;24.730;2023-04-30T00:22:16;9.50;;;6.85;;
59273;SDS011;45044;41.572;24.730;2023-04-30T00:24:43;10.73;;;7.60;;
59273;SDS011;45044;41.572;24.730;2023-04-30T00:27:10;12.90;;;8.07;;
59273;SDS011;45044;41.572;24.730;2023-04-30T00:29:36;11.48;;;7.80;;
59273;SDS011;45044;41.572;24.730;2023-04-30T00:32:03;20.27;;;12.73;;
59273;SDS011;45044;41.572;24.730;2023-04-30T00:34:31;15.05;;;10.85;;
59273;SDS011;45044;41.572;24.730;2023-04-30T00:36:58;12.10;;;8.60;;
59273;SDS011;45044;41.572;24.730;2023-04-30T00:39:25;47.45;;;38.30;;
59273;SDS011;45044;41.572;24.730;2023-04-30T00:41:51;12.85;;;8.07;;
59273;SDS011;45044;41.572;24.730;2023-04-30T00:44:18;8.90;;;6.63;;
59273;SDS011;45044;41.572;24.730;2023-04-30T00:46:45;11.25;;;6.30;;
59273;SDS011;45044;41.572;24.730;2023-04-30T00:49:11;11.13;;;6.95;;
59273;SDS011;45044;41.572;24.730;2023-04-30T00:51:39;9.68;;;6.72;;
59273;SDS011;45044;41.572;24.730;2023-04-30T00:54:07;16.23;;;9.35;;
59273;SDS011;45044;41.572;24.730;2023-04-30T00:56:34;10.45;;;6.65;;
59273;SDS011;45044;41.572;24.730;2023-04-30T00:59:01;8.20;;;6.63;;
59273;SDS011;45044;41.572;24.730;2023-04-30T01:01:28;9.45;;;6.43;;
59273;SDS011;45044;41.572;24.730;2023-04-30T01:03:56;8.70;;;6.47;;
59273;SDS011;45044;41.572;24.730;2023-04-30T01:06:23;8.27;;;6.45;;
59273;SDS011;45044;41.572;24.730;2023-04-30T01:08:52;8.95;;;6.47;;
59273;SDS011;45044;41.572;24.730;2023-04-30T01:14:24;8.73;;;6.15;;
59273;SDS011;45044;41.572;24.730;2023-04-30T01:17:04;9.60;;;6.78;;
59273;SDS011;45044;41.572;24.730;2023-04-30T01:19:39;10.40;;;7.13;;
59273;SDS011;45044;41.572;24.730;2023-04-30T01:25:20;11.90;;;8.43;;
59273;SDS011;45044;41.572;24.730;2023-04-30T01:30:29;12.05;;;8.20;;
59273;SDS011;45044;41.572;24.730;2023-04-30T01:32:57;10.65;;;8.10;;
59273;SDS011;45044;41.572;24.730;2023-04-30T01:41:28;13.32;;;9.23;;
59273;SDS011;45044;41.572;24.730;2023-04-30T01:47:00;12.82;;;8.48;;
59273;SDS011;45044;41.572;24.730;2023-04-30T01:49:39;14.75;;;8.23;;
59273;SDS011;45044;41.572;24.730;2023-04-30T01:52:20;10.57;;;6.85;;
59273;SDS011;45044;41.572;24.730;2023-04-30T01:54:59;11.35;;;7.38;;
59273;SDS011;45044;41.572;24.730;2023-04-30T01:57:36;11.63;;;8.05;;
59273;SDS011;45044;41.572;24.730;2023-04-30T02:00:07;13.20;;;8.57;;
59273;SDS011;45044;41.572;24.730;2023-04-30T02:02:37;10.88;;;8.65;;
59273;SDS011;45044;41.572;24.730;2023-04-30T02:05:04;11.75;;;8.70;;
59273;SDS011;45044;41.572;24.730;2023-04-30T02:07:49;15.43;;;9.88;;
59273;SDS011;45044;41.572;24.730;2023-04-30T02:10:19;14.05;;;9.57;;
59273;SDS011;45044;41.572;24.730;2023-04-30T02:12:47;12.10;;;8.88;;
59273;SDS011;45044;41.572;24.730;2023-04-30T02:15:15;10.98;;;8.27;;
59273;SDS011;45044;41.572;24.730;2023-04-30T02:17:42;10.48;;;8.15;;
59273;SDS011;45044;41.572;24.730;2023-04-30T02:20:09;11.13;;;7.72;;
59273;SDS011;45044;41.572;24.730;2023-04-30T02:22:36;15.88;;;9.57;;
59273;SDS011;45044;41.572;24.730;2023-04-30T02:25:03;12.35;;;8.48;;
59273;SDS011;45044;41.572;24.730;2023-04-30T02:27:31;11.43;;;8.15;;
59273;SDS011;45044;41.572;24.730;2023-04-30T02:29:59;14.63;;;9.20;;
59273;SDS011;45044;41.572;24.730;2023-04-30T02:32:26;14.95;;;9.15;;
59273;SDS011;45044;41.572;24.730;2023-04-30T02:34:53;12.52;;;8.40;;
59273;SDS011;45044;41.572;24.730;2023-04-30T02:37:20;12.77;;;8.35;;
59273;SDS011;45044;41.572;24.730;2023-04-30T02:39:48;13.20;;;8.80;;
59273;SDS011;45044;41.572;24.730;2023-04-30T02:42:15;16.95;;;9.82;;
59273;SDS011;45044;41.572;24.730;2023-04-30T02:44:41;18.92;;;12.43;;
59273;SDS011;45044;41.572;24.730;2023-04-30T02:47:08;16.98;;;10.63;;
59273;SDS011;45044;41.572;24.730;2023-04-30T02:49:36;14.55;;;9.85;;
59273;SDS011;45044;41.572;24.730;2023-04-30T02:52:02;14.75;;;9.80;;
59273;SDS011;45044;41.572;24.730;2023-04-30T02:54:30;10.50;;;8.65;;
59273;SDS011;45044;41.572;24.730;2023-04-30T02:56:56;12.65;;;9.68;;
59273;SDS011;45044;41.572;24.730;2023-04-30T02:59:23;11.80;;;8.80;;
59273;SDS011;45044;41.572;24.730;2023-04-30T03:01:50;13.88;;;9.10;;
59273;SDS011;45044;41.572;24.730;2023-04-30T03:04:17;14.32;;;9.10;;
59273;SDS011;45044;41.572;24.730;2023-04-30T03:06:44;11.57;;;8.65;;
59273;SDS011;45044;41.572;24.730;2023-04-30T03:09:11;12.77;;;8.38;;
59273;SDS011;45044;41.572;24.730;2023-04-30T03:11:38;11.85;;;7.35;;
59273;SDS011;45044;41.572;24.730;2023-04-30T03:14:04;11.35;;;7.68;;
59273;SDS011;45044;41.572;24.730;2023-04-30T03:16:37;13.05;;;9.40;;
59273;SDS011;45044;41.572;24.730;2023-04-30T03:19:04;12.43;;;10.30;;
59273;SDS011;45044;41.572;24.730;2023-04-30T03:21:31;12.20;;;9.82;;
59273;SDS011;45044;41.572;24.730;2023-04-30T03:23:58;16.02;;;11.32;;
59273;SDS011;45044;41.572;24.730;2023-04-30T03:26:24;14.55;;;9.70;;
59273;SDS011;45044;41.572;24.730;2023-04-30T03:28:52;16.77;;;10.90;;
59273;SDS011;45044;41.572;24.730;2023-04-30T03:31:21;15.68;;;12.13;;
59273;SDS011;45044;41.572;24.730;2023-04-30T03:33:48;15.73;;;11.50;;
59273;SDS011;45044;41.572;24.730;2023-04-30T03:36:14;29.13;;;20.23;;
59273;SDS011;45044;41.572;24.730;2023-04-30T03:38:42;21.65;;;14.07;;
59273;SDS011;45044;41.572;24.730;2023-04-30T03:41:08;21.85;;;14.65;;
59273;SDS011;45044;41.572;24.730;2023-04-30T03:43:36;26.15;;;18.42;;
59273;SDS011;45044;41.572;24.730;2023-04-30T03:46:03;26.13;;;18.60;;
59273;SDS011;45044;41.572;24.730;2023-04-30T03:48:31;23.55;;;17.80;;
59273;SDS011;45044;41.572;24.730;2023-04-30T03:50:57;23.02;;;15.82;;
59273;SDS011;45044;41.572;24.730;2023-04-30T03:53:24;20.98;;;13.90;;
59273;SDS011;45044;41.572;24.730;2023-04-30T03:55:52;26.70;;;17.75;;
59273;SDS011;45044;41.572;24.730;2023-04-30T03:58:20;34.50;;;24.15;;
59273;SDS011;45044;41.572;24.730;2023-04-30T04:00:47;21.65;;;13.95;;
59273;SDS011;45044;41.572;24.730;2023-04-30T04:03:14;23.25;;;15.93;;
59273;SDS011;45044;41.572;24.730;2023-04-30T04:05:42;25.85;;;17.88;;
59273;SDS011;45044;41.572;24.730;2023-04-30T04:08:09;19.13;;;14.10;;
59273;SDS011;45044;41.572;24.730;2023-04-30T04:10:36;16.20;;;11.63;;
59273;SDS011;45044;41.572;24.730;2023-04-30T04:13:04;14.75;;;11.05;;
59273;SDS011;45044;41.572;24.730;2023-04-30T04:15:32;13.40;;;10.90;;
59273;SDS011;45044;41.572;24.730;2023-04-30T04:17:59;17.15;;;11.63;;
59273;SDS011;45044;41.572;24.730;2023-04-30T04:20:26;22.80;;;14.15;;
59273;SDS011;45044;41.572;24.730;2023-04-30T04:22:54;28.00;;;19.02;;
59273;SDS011;45044;41.572;24.730;2023-04-30T04:25:23;19.83;;;12.88;;
59273;SDS011;45044;41.572;24.730;2023-04-30T04:27:52;18.73;;;13.35;;
59273;SDS011;45044;41.572;24.730;2023-04-30T04:30:19;25.33;;;16.50;;
59273;SDS011;45044;41.572;24.730;2023-04-30T04:32:46;21.00;;;14.82;;
59273;SDS011;45044;41.572;24.730;2023-04-30T04:35:16;19.25;;;13.57;;
59273;SDS011;45044;41.572;24.730;2023-04-30T04:37:46;21.08;;;15.00;;
59273;SDS011;45044;41.572;24.730;2023-04-30T04:40:13;18.95;;;15.15;;
59273;SDS011;45044;41.572;24.730;2023-04-30T04:42:40;19.58;;;15.50;;
59273;SDS011;45044;41.572;24.730;2023-04-30T04:45:07;29.83;;;19.52;;
59273;SDS011;45044;41.572;24.730;2023-04-30T04:47:35;47.45;;;30.30;;
59273;SDS011;45044;41.572;24.730;2023-04-30T04:50:03;72.68;;;40.53;;
59273;SDS011;45044;41.572;24.730;2023-04-30T04:52:38;34.10;;;21.70;;
59273;SDS011;45044;41.572;24.730;2023-04-30T04:55:05;39.25;;;24.42;;
59273;SDS011;45044;41.572;24.730;2023-04-30T04:57:33;20.58;;;14.43;;
59273;SDS011;45044;41.572;24.730;2023-04-30T05:00:00;32.95;;;22.40;;
59273;SDS011;45044;41.572;24.730;2023-04-30T05:02:27;23.63;;;17.17;;
59273;SDS011;45044;41.572;24.730;2023-04-30T05:04:55;25.63;;;19.40;;
59273;SDS011;45044;41.572;24.730;2023-04-30T05:07:22;18.35;;;13.07;;
59273;SDS011;45044;41.572;24.730;2023-04-30T05:09:48;13.82;;;10.65;;
59273;SDS011;45044;41.572;24.730;2023-04-30T05:12:15;13.35;;;9.43;;
59273;SDS011;45044;41.572;24.730;2023-04-30T05:14:42;13.40;;;10.32;;
59273;SDS011;45044;41.572;24.730;2023-04-30T05:17:10;14.35;;;10.30;;
59273;SDS011;45044;41.572;24.730;2023-04-30T05:19:36;22.17;;;16.30;;
59273;SDS011;45044;41.572;24.730;2023-04-30T05:22:03;26.42;;;18.77;;
59273;SDS011;45044;41.572;24.730;2023-04-30T05:24:30;23.98;;;18.85;;
59273;SDS011;45044;41.572;24.730;2023-04-30T05:26:57;26.98;;;20.00;;
59273;SDS011;45044;41.572;24.730;2023-04-30T05:29:24;23.45;;;17.63;;
59273;SDS011;45044;41.572;24.730;2023-04-30T05:31:51;22.48;;;18.65;;
59273;SDS011;45044;41.572;24.730;2023-04-30T05:34:18;21.77;;;17.58;;
59273;SDS011;45044;41.572;24.730;2023-04-30T05:36:45;21.80;;;16.25;;
59273;SDS011;45044;41.572;24.730;2023-04-30T05:39:12;20.65;;;15.85;;
59273;SDS011;45044;41.572;24.730;2023-04-30T05:41:39;19.88;;;16.88;;
59273;SDS011;45044;41.572;24.730;2023-04-30T05:44:06;22.83;;;16.45;;
59273;SDS011;45044;41.572;24.730;2023-04-30T05:46:33;20.23;;;16.40;;
59273;SDS011;45044;41.572;24.730;2023-04-30T05:49:03;25.10;;;18.13;;
59273;SDS011;45044;41.572;24.730;2023-04-30T05:51:32;22.90;;;17.75;;
59273;SDS011;45044;41.572;24.730;2023-04-30T05:53:59;22.65;;;17.85;;
59273;SDS011;45044;41.572;24.730;2023-04-30T05:56:26;31.08;;;22.00;;
59273;SDS011;45044;41.572;24.730;2023-04-30T05:58:53;25.58;;;20.70;;
59273;SDS011;45044;41.572;24.730;2023-04-30T06:01:20;27.25;;;20.67;;
59273;SDS011;45044;41.572;24.730;2023-04-30T06:03:47;26.02;;;20.27;;
59273;SDS011;45044;41.572;24.730;2023-04-30T06:06:14;26.85;;;21.70;;
59273;SDS011;45044;41.572;24.730;2023-04-30T06:08:41;33.53;;;27.67;;
59273;SDS011;45044;41.572;24.730;2023-04-30T06:11:11;29.85;;;24.92;;
59273;SDS011;45044;41.572;24.730;2023-04-30T06:13:38;29.95;;;22.15;;
59273;SDS011;45044;41.572;24.730;2023-04-30T06:16:06;31.70;;;21.58;;
59273;SDS011;45044;41.572;24.730;2023-04-30T06:18:34;41.50;;;28.48;;
59273;SDS011;45044;41.572;24.730;2023-04-30T06:21:01;42.08;;;29.17;;
59273;SDS011;45044;41.572;24.730;2023-04-30T06:23:28;41.40;;;27.70;;
59273;SDS011;45044;41.572;24.730;2023-04-30T06:25:55;37.22;;;28.70;;
59273;SDS011;45044;41.572;24.730;2023-04-30T06:28:22;37.10;;;29.58;;
59273;SDS011;45044;41.572;24.730;2023-04-30T06:30:49;37.75;;;26.83;;
59273;SDS011;45044;41.572;24.730;2023-04-30T06:33:17;26.40;;;20.15;;
59273;SDS011;45044;41.572;24.730;2023-04-30T06:35:44;23.48;;;19.20;;
59273;SDS011;45044;41.572;24.730;2023-04-30T06:38:11;16.17;;;11.70;;
59273;SDS011;45044;41.572;24.730;2023-04-30T06:40:37;9.68;;;6.88;;
59273;SDS011;45044;41.572;24.730;2023-04-30T06:43:04;7.13;;;4.55;;
59273;SDS011;45044;41.572;24.730;2023-04-30T06:45:31;10.65;;;5.88;;
59273;SDS011;45044;41.572;24.730;2023-04-30T06:47:58;9.38;;;6.50;;
59273;SDS011;45044;41.572;24.730;2023-04-30T06:50:27;8.77;;;5.40;;
59273;SDS011;45044;41.572;24.730;2023-04-30T06:52:54;8.20;;;5.28;;
59273;SDS011;45044;41.572;24.730;2023-04-30T06:55:21;8.10;;;4.60;;
59273;SDS011;45044;41.572;24.730;2023-04-30T06:57:47;8.20;;;5.25;;
59273;SDS011;45044;41.572;24.730;2023-04-30T07:00:14;5.55;;;3.85;;
59273;SDS011;45044;41.572;24.730;2023-04-30T07:02:42;7.32;;;4.88;;
59273;SDS011;45044;41.572;24.730;2023-04-30T07:05:09;5.10;;;3.70;;
59273;SDS011;45044;41.572;24.730;2023-04-30T07:07:36;6.20;;;4.05;;
59273;SDS011;45044;41.572;24.730;2023-04-30T07:10:03;7.20;;;4.28;;
59273;SDS011;45044;41.572;24.730;2023-04-30T07:12:31;5.72;;;3.70;;
59273;SDS011;45044;41.572;24.730;2023-04-30T07:14:58;4.97;;;3.80;;
59273;SDS011;45044;41.572;24.730;2023-04-30T07:17:25;6.78;;;4.00;;
59273;SDS011;45044;41.572;24.730;2023-04-30T07:19:53;8.27;;;4.85;;
59273;SDS011;45044;41.572;24.730;2023-04-30T07:22:20;5.22;;;3.58;;
59273;SDS011;45044;41.572;24.730;2023-04-30T07:24:47;6.82;;;4.07;;
59273;SDS011;45044;41.572;24.730;2023-04-30T07:27:14;7.32;;;3.88;;
59273;SDS011;45044;41.572;24.730;2023-04-30T07:29:41;5.07;;;3.70;;
59273;SDS011;45044;41.572;24.730;2023-04-30T07:32:08;5.50;;;4.03;;
59273;SDS011;45044;41.572;24.730;2023-04-30T07:34:36;6.35;;;3.70;;
59273;SDS011;45044;41.572;24.730;2023-04-30T07:37:03;6.28;;;3.53;;
59273;SDS011;45044;41.572;24.730;2023-04-30T07:39:30;6.18;;;3.50;;
59273;SDS011;45044;41.572;24.730;2023-04-30T07:41:58;6.15;;;4.30;;
59273;SDS011;45044;41.572;24.730;2023-04-30T07:44:24;8.20;;;4.15;;
59273;SDS011;45044;41.572;24.730;2023-04-30T07:46:51;5.93;;;4.22;;
59273;SDS011;45044;41.572;24.730;2023-04-30T07:49:18;5.55;;;4.20;;
59273;SDS011;45044;41.572;24.730;2023-04-30T07:51:45;5.78;;;3.88;;
59273;SDS011;45044;41.572;24.730;2023-04-30T07:54:12;6.40;;;4.10;;
59273;SDS011;45044;41.572;24.730;2023-04-30T07:56:39;6.18;;;3.45;;
59273;SDS011;45044;41.572;24.730;2023-04-30T07:59:07;8.50;;;5.25;;
59273;SDS011;45044;41.572;24.730;2023-04-30T08:01:34;10.13;;;6.40;;
59273;SDS011;45044;41.572;24.730;2023-04-30T08:04:01;9.50;;;5.55;;
59273;SDS011;45044;41.572;24.730;2023-04-30T08:06:28;5.70;;;3.50;;
59273;SDS011;45044;41.572;24.730;2023-04-30T08:08:55;6.88;;;4.68;;
59273;SDS011;45044;41.572;24.730;2023-04-30T08:11:21;5.68;;;3.90;;
59273;SDS011;45044;41.572;24.730;2023-04-30T08:13:48;4.68;;;3.33;;
59273;SDS011;45044;41.572;24.730;2023-04-30T08:16:15;6.95;;;4.22;;
59273;SDS011;45044;41.572;24.730;2023-04-30T08:18:42;6.32;;;3.95;;
59273;SDS011;45044;41.572;24.730;2023-04-30T08:21:12;6.70;;;4.47;;
59273;SDS011;45044;41.572;24.730;2023-04-30T08:23:39;5.47;;;3.42;;
59273;SDS011;45044;41.572;24.730;2023-04-30T08:26:05;6.45;;;3.55;;
59273;SDS011;45044;41.572;24.730;2023-04-30T08:28:32;4.15;;;2.92;;
59273;SDS011;45044;41.572;24.730;2023-04-30T08:30:59;6.40;;;4.00;;
59273;SDS011;45044;41.572;24.730;2023-04-30T08:33:26;6.68;;;3.88;;
59273;SDS011;45044;41.572;24.730;2023-04-30T08:35:53;4.13;;;2.50;;
59273;SDS011;45044;41.572;24.730;2023-04-30T08:38:20;3.45;;;2.50;;
59273;SDS011;45044;41.572;24.730;2023-04-30T08:41:03;4.70;;;3.10;;
59273;SDS011;45044;41.572;24.730;2023-04-30T08:43:36;9.00;;;5.20;;
59273;SDS011;45044;41.572;24.730;2023-04-30T08:46:04;6.50;;;4.05;;
59273;SDS011;45044;41.572;24.730;2023-04-30T08:48:31;7.65;;;4.82;;
59273;SDS011;45044;41.572;24.730;2023-04-30T08:51:02;5.72;;;3.08;;
59273;SDS011;45044;41.572;24.730;2023-04-30T08:53:30;4.18;;;2.30;;
59273;SDS011;45044;41.572;24.730;2023-04-30T08:56:00;8.23;;;5.45;;
59273;SDS011;45044;41.572;24.730;2023-04-30T08:58:28;4.85;;;2.80;;
59273;SDS011;45044;41.572;24.730;2023-04-30T09:00:57;8.35;;;5.20;;
59273;SDS011;45044;41.572;24.730;2023-04-30T09:03:25;5.22;;;3.50;;
59273;SDS011;45044;41.572;24.730;2023-04-30T09:05:53;5.45;;;3.08;;
59273;SDS011;45044;41.572;24.730;2023-04-30T09:08:39;3.88;;;2.67;;
59273;SDS011;45044;41.572;24.730;2023-04-30T09:11:22;6.40;;;3.22;;
59273;SDS011;45044;41.572;24.730;2023-04-30T09:13:59;10.27;;;7.30;;
59273;SDS011;45044;41.572;24.730;2023-04-30T09:16:43;4.95;;;3.15;;
59273;SDS011;45044;41.572;24.730;2023-04-30T09:21:50;5.13;;;2.25;;
59273;SDS011;45044;41.572;24.730;2023-04-30T09:24:17;3.88;;;2.75;;
59273;SDS011;45044;41.572;24.730;2023-04-30T09:26:45;5.22;;;3.67;;
59273;SDS011;45044;41.572;24.730;2023-04-30T09:29:12;6.13;;;3.92;;
59273;SDS011;45044;41.572;24.730;2023-04-30T09:31:45;5.75;;;3.83;;
59273;SDS011;45044;41.572;24.730;2023-04-30T09:34:13;5.80;;;3.65;;
59273;SDS011;45044;41.572;24.730;2023-04-30T09:36:50;4.65;;;2.92;;
59273;SDS011;45044;41.572;24.730;2023-04-30T09:39:20;6.70;;;4.07;;
59273;SDS011;45044;41.572;24.730;2023-04-30T09:41:48;9.68;;;6.45;;
59273;SDS011;45044;41.572;24.730;2023-04-30T09:44:29;6.80;;;4.25;;
59273;SDS011;45044;41.572;24.730;2023-04-30T09:46:57;4.07;;;2.47;;
59273;SDS011;45044;41.572;24.730;2023-04-30T09:49:25;7.72;;;4.80;;
59273;SDS011;45044;41.572;24.730;2023-04-30T09:51:53;7.72;;;4.93;;
59273;SDS011;45044;41.572;24.730;2023-04-30T09:54:24;4.78;;;3.40;;
59273;SDS011;45044;41.572;24.730;2023-04-30T09:56:56;5.13;;;3.30;;
59273;SDS011;45044;41.572;24.730;2023-04-30T09:59:33;5.80;;;4.03;;
59273;SDS011;45044;41.572;24.730;2023-04-30T10:02:07;6.35;;;3.90;;
59273;SDS011;45044;41.572;24.730;2023-04-30T10:04:35;8.50;;;4.88;;
59273;SDS011;45044;41.572;24.730;2023-04-30T10:07:04;5.80;;;3.30;;
59273;SDS011;45044;41.572;24.730;2023-04-30T10:09:46;5.70;;;3.38;;
59273;SDS011;45044;41.572;24.730;2023-04-30T10:12:20;3.78;;;2.72;;
59273;SDS011;45044;41.572;24.730;2023-04-30T10:14:53;3.38;;;2.45;;
59273;SDS011;45044;41.572;24.730;2023-04-30T10:17:26;3.97;;;2.33;;
59273;SDS011;45044;41.572;24.730;2023-04-30T10:19:56;4.35;;;2.50;;
59273;SDS011;45044;41.572;24.730;2023-04-30T10:22:27;3.10;;;2.45;;
59273;SDS011;45044;41.572;24.730;2023-04-30T10:24:55;7.88;;;4.65;;
59273;SDS011;45044;41.572;24.730;2023-04-30T10:27:22;5.22;;;3.20;;
59273;SDS011;45044;41.572;24.730;2023-04-30T10:29:49;4.15;;;2.17;;
59273;SDS011;45044;41.572;24.730;2023-04-30T10:32:17;4.75;;;2.55;;
59273;SDS011;45044;41.572;24.730;2023-04-30T10:34:53;3.25;;;2.00;;
59273;SDS011;45044;41.572;24.730;2023-04-30T10:39:55;7.97;;;5.68;;
59273;SDS011;45044;41.572;24.730;2023-04-30T10:42:22;7.63;;;4.50;;
59273;SDS011;45044;41.572;24.730;2023-04-30T10:44:49;9.02;;;6.40;;
59273;SDS011;45044;41.572;24.730;2023-04-30T10:47:16;8.85;;;4.93;;
59273;SDS011;45044;41.572;24.730;2023-04-30T10:49:50;9.02;;;5.50;;
59273;SDS011;45044;41.572;24.730;2023-04-30T10:52:25;4.68;;;2.53;;
59273;SDS011;45044;41.572;24.730;2023-04-30T10:54:54;4.60;;;2.97;;
59273;SDS011;45044;41.572;24.730;2023-04-30T10:57:20;6.45;;;4.93;;
59273;SDS011;45044;41.572;24.730;2023-04-30T11:00:30;8.15;;;5.30;;
59273;SDS011;45044;41.572;24.730;2023-04-30T11:05:10;6.22;;;4.13;;
59273;SDS011;45044;41.572;24.730;2023-04-30T11:07:48;6.40;;;4.15;;
59273;SDS011;45044;41.572;24.730;2023-04-30T11:10:20;5.50;;;3.05;;
59273;SDS011;45044;41.572;24.730;2023-04-30T11:12:49;3.45;;;2.30;;
59273;SDS011;45044;41.572;24.730;2023-04-30T11:15:19;9.23;;;4.65;;
59273;SDS011;45044;41.572;24.730;2023-04-30T11:17:48;6.78;;;4.18;;
59273;SDS011;45044;41.572;24.730;2023-04-30T11:20:19;5.60;;;3.03;;
59273;SDS011;45044;41.572;24.730;2023-04-30T11:23:06;3.40;;;1.65;;
59273;SDS011;45044;41.572;24.730;2023-04-30T11:25:38;1.40;;;1.10;;
59273;SDS011;45044;41.572;24.730;2023-04-30T11:28:07;5.30;;;2.17;;
59273;SDS011;45044;41.572;24.730;2023-04-30T11:30:39;2.55;;;1.27;;
59273;SDS011;45044;41.572;24.730;2023-04-30T11:33:15;2.28;;;1.30;;
59273;SDS011;45044;41.572;24.730;2023-04-30T11:35:43;3.70;;;1.70;;
59273;SDS011;45044;41.572;24.730;2023-04-30T11:38:13;3.67;;;1.90;;
59273;SDS011;45044;41.572;24.730;2023-04-30T11:40:41;3.28;;;1.67;;
59273;SDS011;45044;41.572;24.730;2023-04-30T11:46:05;3.05;;;1.63;;
59273;SDS011;45044;41.572;24.730;2023-04-30T11:48:41;3.40;;;2.00;;
59273;SDS011;45044;41.572;24.730;2023-04-30T11:53:44;3.43;;;1.60;;
59273;SDS011;45044;41.572;24.730;2023-04-30T11:56:12;2.97;;;1.80;;
59273;SDS011;45044;41.572;24.730;2023-04-30T11:58:40;3.38;;;1.73;;
59273;SDS011;45044;41.572;24.730;2023-04-30T12:01:07;3.60;;;1.80;;
59273;SDS011;45044;41.572;24.730;2023-04-30T12:03:48;2.78;;;1.70;;
59273;SDS011;45044;41.572;24.730;2023-04-30T12:06:26;2.95;;;1.88;;
59273;SDS011;45044;41.572;24.730;2023-04-30T12:08:54;2.35;;;1.90;;
59273;SDS011;45044;41.572;24.730;2023-04-30T12:11:23;2.92;;;1.55;;
59273;SDS011;45044;41.572;24.730;2023-04-30T12:13:52;1.95;;;1.27;;
59273;SDS011;45044;41.572;24.730;2023-04-30T12:16:20;7.47;;;3.13;;
59273;SDS011;45044;41.572;24.730;2023-04-30T12:18:48;3.38;;;1.65;;
59273;SDS011;45044;41.572;24.730;2023-04-30T12:21:18;4.03;;;2.55;;
59273;SDS011;45044;41.572;24.730;2023-04-30T12:23:46;4.35;;;1.98;;
59273;SDS011;45044;41.572;24.730;2023-04-30T12:26:13;3.30;;;1.75;;
59273;SDS011;45044;41.572;24.730;2023-04-30T12:28:40;3.80;;;1.67;;
59273;SDS011;45044;41.572;24.730;2023-04-30T12:31:06;2.55;;;1.77;;
59273;SDS011;45044;41.572;24.730;2023-04-30T12:33:33;8.13;;;3.72;;
59273;SDS011;45044;41.572;24.730;2023-04-30T12:36:02;11.63;;;4.57;;
59273;SDS011;45044;41.572;24.730;2023-04-30T12:38:29;5.05;;;2.17;;
59273;SDS011;45044;41.572;24.730;2023-04-30T12:40:56;16.08;;;8.27;;
59273;SDS011;45044;41.572;24.730;2023-04-30T12:43:23;19.42;;;8.88;;
59273;SDS011;45044;41.572;24.730;2023-04-30T12:45:51;6.53;;;3.50;;
59273;SDS011;45044;41.572;24.730;2023-04-30T12:48:20;3.35;;;2.10;;
59273;SDS011;45044;41.572;24.730;2023-04-30T12:53:24;5.97;;;3.05;;
59273;SDS011;45044;41.572;24.730;2023-04-30T12:58:38;6.30;;;3.65;;
59273;SDS011;45044;41.572;24.730;2023-04-30T13:01:15;29.20;;;17.92;;
59273;SDS011;45044;41.572;24.730;2023-04-30T13:03:44;25.40;;;15.13;;
59273;SDS011;45044;41.572;24.730;2023-04-30T13:06:11;64.68;;;34.72;;
59273;SDS011;45044;41.572;24.730;2023-04-30T13:08:38;29.70;;;14.95;;
59273;SDS011;45044;41.572;24.730;2023-04-30T13:11:23;62.88;;;31.50;;
59273;SDS011;45044;41.572;24.730;2023-04-30T13:13:52;25.77;;;12.77;;
59273;SDS011;45044;41.572;24.730;2023-04-30T13:16:22;43.63;;;21.38;;
59273;SDS011;45044;41.572;24.730;2023-04-30T13:18:53;25.67;;;15.75;;
59273;SDS011;45044;41.572;24.730;2023-04-30T13:21:20;17.55;;;9.30;;
59273;SDS011;45044;41.572;24.730;2023-04-30T13:23:48;14.05;;;8.98;;
59273;SDS011;45044;41.572;24.730;2023-04-30T13:26:19;10.35;;;6.30;;
59273;SDS011;45044;41.572;24.730;2023-04-30T13:28:47;16.90;;;10.65;;
59273;SDS011;45044;41.572;24.730;2023-04-30T13:31:14;15.90;;;11.48;;
59273;SDS011;45044;41.572;24.730;2023-04-30T13:33:41;13.13;;;10.18;;
59273;SDS011;45044;41.572;24.730;2023-04-30T13:36:08;28.20;;;18.75;;
59273;SDS011;45044;41.572;24.730;2023-04-30T13:38:35;19.50;;;12.10;;
59273;SDS011;45044;41.572;24.730;2023-04-30T13:41:01;14.65;;;10.45;;
59273;SDS011;45044;41.572;24.730;2023-04-30T13:43:28;16.90;;;11.52;;
59273;SDS011;45044;41.572;24.730;2023-04-30T13:45:55;47.88;;;25.70;;
59273;SDS011;45044;41.572;24.730;2023-04-30T13:48:23;42.80;;;20.60;;
59273;SDS011;45044;41.572;24.730;2023-04-30T13:50:51;78.28;;;40.13;;
59273;SDS011;45044;41.572;24.730;2023-04-30T13:53:21;58.08;;;28.83;;
59273;SDS011;45044;41.572;24.730;2023-04-30T13:55:48;13.82;;;9.07;;
59273;SDS011;45044;41.572;24.730;2023-04-30T13:58:15;18.08;;;10.32;;
59273;SDS011;45044;41.572;24.730;2023-04-30T14:00:42;18.13;;;9.95;;
59273;SDS011;45044;41.572;24.730;2023-04-30T14:03:09;9.00;;;5.32;;
59273;SDS011;45044;41.572;24.730;2023-04-30T14:05:37;20.15;;;13.18;;
59273;SDS011;45044;41.572;24.730;2023-04-30T14:08:04;40.28;;;20.15;;
59273;SDS011;45044;41.572;24.730;2023-04-30T14:10:31;66.22;;;34.63;;
59273;SDS011;45044;41.572;24.730;2023-04-30T14:12:58;24.17;;;13.57;;
59273;SDS011;45044;41.572;24.730;2023-04-30T14:15:25;14.13;;;8.30;;
59273;SDS011;45044;41.572;24.730;2023-04-30T14:17:55;33.50;;;20.33;;
59273;SDS011;45044;41.572;24.730;2023-04-30T14:20:22;31.95;;;17.27;;
59273;SDS011;45044;41.572;24.730;2023-04-30T14:22:50;27.10;;;17.00;;
59273;SDS011;45044;41.572;24.730;2023-04-30T14:25:24;20.65;;;13.55;;
59273;SDS011;45044;41.572;24.730;2023-04-30T14:27:51;9.48;;;6.55;;
59273;SDS011;45044;41.572;24.730;2023-04-30T14:30:18;10.23;;;5.93;;
59273;SDS011;45044;41.572;24.730;2023-04-30T14:32:44;8.15;;;5.43;;
59273;SDS011;45044;41.572;24.730;2023-04-30T14:35:11;6.85;;;5.30;;
59273;SDS011;45044;41.572;24.730;2023-04-30T14:37:38;9.85;;;6.85;;
59273;SDS011;45044;41.572;24.730;2023-04-30T14:40:05;11.50;;;9.23;;
59273;SDS011;45044;41.572;24.730;2023-04-30T14:42:33;11.23;;;8.20;;
59273;SDS011;45044;41.572;24.730;2023-04-30T14:45:00;42.58;;;27.27;;
59273;SDS011;45044;41.572;24.730;2023-04-30T14:47:27;18.65;;;12.48;;
59273;SDS011;45044;41.572;24.730;2023-04-30T14:49:54;18.95;;;14.15;;
59273;SDS011;45044;41.572;24.730;2023-04-30T14:52:24;12.52;;;9.13;;
59273;SDS011;45044;41.572;24.730;2023-04-30T14:54:51;11.18;;;9.25;;
59273;SDS011;45044;41.572;24.730;2023-04-30T14:57:18;16.48;;;13.35;;
59273;SDS011;45044;41.572;24.730;2023-04-30T14:59:45;12.05;;;10.05;;
59273;SDS011;45044;41.572;24.730;2023-04-30T15:02:12;12.63;;;9.75;;
59273;SDS011;45044;41.572;24.730;2023-04-30T15:04:40;12.77;;;11.35;;
59273;SDS011;45044;41.572;24.730;2023-04-30T15:07:12;12.35;;;10.45;;